createdAt,value
2023-05-13T00:01:53.769Z,7.97
2023-05-13T00:04:20.528Z,8.75
2023-05-13T00:06:47.237Z,9.07
2023-05-13T00:09:13.917Z,8.52
2023-05-13T00:11:41.308Z,8.20
2023-05-13T00:14:10.479Z,7.90
2023-05-13T00:16:37.427Z,8.98
2023-05-13T00:19:04.451Z,8.52
2023-05-13T00:21:32.250Z,9.02
2023-05-13T00:23:59.041Z,8.70
2023-05-13T00:26:25.902Z,8.30
2023-05-13T00:28:52.686Z,8.23
2023-05-13T00:31:19.587Z,10.32
2023-05-13T00:33:46.338Z,8.25
2023-05-13T00:36:13.271Z,8.40
2023-05-13T00:38:40.193Z,9.45
2023-05-13T00:41:07.298Z,9.57
2023-05-13T00:43:34.014Z,8.27
2023-05-13T00:46:01.194Z,8.13
2023-05-13T00:48:27.960Z,8.65
2023-05-13T00:50:55.067Z,8.82
2023-05-13T00:53:22.177Z,8.27
2023-05-13T00:55:49.113Z,9.82
2023-05-13T00:58:17.896Z,11.18
2023-05-13T01:01:09.516Z,8.90
2023-05-13T01:04:13.945Z,9.30
2023-05-13T01:07:09.229Z,8.80
2023-05-13T01:09:58.590Z,8.60
2023-05-13T01:12:36.754Z,9.25
2023-05-13T01:15:26.021Z,8.88
2023-05-13T01:18:06.753Z,12.43
2023-05-13T01:20:34.882Z,8.07
2023-05-13T01:23:03.993Z,9.38
2023-05-13T01:25:31.004Z,9.80
2023-05-13T01:27:57.825Z,10.35
2023-05-13T01:30:25.348Z,9.13
2023-05-13T01:32:53.918Z,8.02
2023-05-13T01:35:21.497Z,8.68
2023-05-13T01:37:50.223Z,9.27
2023-05-13T01:40:31.158Z,8.50
2023-05-13T01:42:59.354Z,8.18
2023-05-13T01:45:29.089Z,7.93
2023-05-13T01:47:56.021Z,7.55
2023-05-13T01:50:22.946Z,8.60
2023-05-13T01:52:49.858Z,7.20
2023-05-13T01:55:16.740Z,10.68
2023-05-13T01:57:43.464Z,7.47
2023-05-13T02:00:10.827Z,8.60
2023-05-13T02:02:37.828Z,8.95
2023-05-13T02:05:05.631Z,8.27
2023-05-13T02:07:33.483Z,7.35
2023-05-13T02:10:00.381Z,8.05
2023-05-13T02:12:27.549Z,7.47
2023-05-13T02:14:55.039Z,7.80
2023-05-13T02:17:22.637Z,7.28
2023-05-13T02:19:49.707Z,7.65
2023-05-13T02:22:16.614Z,7.47
2023-05-13T02:24:43.406Z,8.18
2023-05-13T02:27:12.738Z,9.35
2023-05-13T02:29:39.707Z,7.85
2023-05-13T02:32:06.692Z,7.50
2023-05-13T02:34:33.548Z,7.15
2023-05-13T02:37:00.303Z,8.82
2023-05-13T02:39:27.089Z,7.60
2023-05-13T02:41:53.796Z,8.25
2023-05-13T02:44:20.496Z,7.55
2023-05-13T02:46:47.280Z,7.93
2023-05-13T02:49:14.188Z,8.73
2023-05-13T02:51:41.065Z,7.65
2023-05-13T02:54:07.865Z,10.27
2023-05-13T02:56:34.590Z,7.10
2023-05-13T02:59:01.630Z,7.57
2023-05-13T03:01:28.590Z,7.97
2023-05-13T03:03:55.511Z,11.15
2023-05-13T03:06:22.264Z,8.60
2023-05-13T03:08:48.947Z,7.40
2023-05-13T03:11:15.650Z,8.48
2023-05-13T03:13:42.405Z,6.72
2023-05-13T03:16:09.729Z,7.38
2023-05-13T03:18:36.572Z,6.40
2023-05-13T03:21:03.402Z,7.05
2023-05-13T03:23:30.332Z,5.50
2023-05-13T03:25:57.047Z,5.95
2023-05-13T03:28:23.743Z,6.75
2023-05-13T03:30:51.473Z,7.03
2023-05-13T03:33:18.506Z,6.28
2023-05-13T03:35:45.794Z,6.65
2023-05-13T03:38:12.494Z,6.35
2023-05-13T03:40:39.465Z,6.20
2023-05-13T03:43:06.178Z,7.25
2023-05-13T03:45:32.971Z,6.70
2023-05-13T03:47:59.671Z,5.90
2023-05-13T03:50:26.615Z,6.20
2023-05-13T03:52:53.342Z,6.00
2023-05-13T03:55:20.259Z,6.55
2023-05-13T03:57:49.266Z,5.90
2023-05-13T04:00:16.597Z,5.63
2023-05-13T04:02:43.575Z,5.95
2023-05-13T04:05:11.066Z,7.07
2023-05-13T04:07:37.910Z,6.00
2023-05-13T04:10:05.015Z,5.82
2023-05-13T04:12:33.369Z,6.85
2023-05-13T04:15:00.307Z,7.32
2023-05-13T04:17:27.632Z,5.25
2023-05-13T04:19:54.993Z,6.75
2023-05-13T04:22:22.106Z,6.78
2023-05-13T04:24:52.166Z,5.97
2023-05-13T04:27:18.952Z,6.38
2023-05-13T04:29:45.655Z,7.28
2023-05-13T04:32:16.174Z,6.85
2023-05-13T04:34:43.011Z,6.00
2023-05-13T04:37:09.743Z,7.22
2023-05-13T04:39:36.438Z,7.88
2023-05-13T04:42:03.270Z,6.05
2023-05-13T04:44:29.959Z,6.45
2023-05-13T04:46:56.703Z,6.93
2023-05-13T04:49:23.426Z,7.63
2023-05-13T04:51:50.637Z,7.43
2023-05-13T04:54:17.723Z,7.88
2023-05-13T04:56:44.511Z,7.80
2023-05-13T04:59:11.247Z,7.07
2023-05-13T05:01:37.957Z,7.13
2023-05-13T05:04:05.796Z,8.27
2023-05-13T05:06:32.778Z,7.03
2023-05-13T05:08:59.631Z,7.07
2023-05-13T05:11:26.427Z,7.82
2023-05-13T05:13:53.183Z,7.10
2023-05-13T05:16:19.992Z,8.07
2023-05-13T05:18:46.892Z,6.88
2023-05-13T05:21:13.728Z,6.82
2023-05-13T05:23:40.422Z,6.75
2023-05-13T05:26:11.771Z,7.47
2023-05-13T05:28:40.273Z,7.13
2023-05-13T05:31:07.275Z,6.43
2023-05-13T05:33:34.128Z,7.00
2023-05-13T05:36:00.875Z,8.75
2023-05-13T05:38:27.902Z,7.07
2023-05-13T05:40:54.749Z,7.38
2023-05-13T05:43:21.621Z,7.53
2023-05-13T05:45:48.413Z,6.97
2023-05-13T05:48:15.122Z,6.93
2023-05-13T05:50:41.913Z,6.50
2023-05-13T05:53:08.635Z,7.43
2023-05-13T05:55:35.534Z,6.68
2023-05-13T05:58:06.628Z,7.25
2023-05-13T06:00:33.527Z,9.80
2023-05-13T06:03:00.489Z,6.18
2023-05-13T06:05:27.576Z,7.45
2023-05-13T06:07:54.314Z,7.85
2023-05-13T06:10:21.294Z,6.55
2023-05-13T06:12:48.221Z,6.57
2023-05-13T06:15:15.004Z,7.15
2023-05-13T06:17:41.985Z,9.02
2023-05-13T06:20:09.308Z,6.75
2023-05-13T06:22:36.095Z,8.25
2023-05-13T06:25:02.914Z,6.95
2023-05-13T06:27:29.694Z,7.10
2023-05-13T06:29:56.445Z,7.15
2023-05-13T06:32:23.193Z,9.00
2023-05-13T06:34:53.526Z,7.25
2023-05-13T06:37:22.072Z,7.25
2023-05-13T06:39:48.810Z,7.72
2023-05-13T06:42:15.868Z,6.95
2023-05-13T06:44:42.769Z,9.73
2023-05-13T06:47:14.802Z,8.40
2023-05-13T06:49:42.321Z,7.45
2023-05-13T06:52:09.952Z,8.30
2023-05-13T06:54:36.894Z,7.90
2023-05-13T06:57:05.757Z,6.72
2023-05-13T06:59:32.524Z,6.90
2023-05-13T07:01:59.388Z,7.60
2023-05-13T07:04:26.151Z,11.65
2023-05-13T07:06:54.769Z,7.78
2023-05-13T07:09:21.545Z,6.72
2023-05-13T07:11:48.472Z,6.95
2023-05-13T07:14:15.269Z,7.15
2023-05-13T07:16:42.052Z,7.28
2023-05-13T07:19:08.943Z,8.80
2023-05-13T07:21:35.785Z,8.55
2023-05-13T07:24:05.148Z,8.40
2023-05-13T07:26:32.512Z,7.88
2023-05-13T07:29:05.540Z,8.70
2023-05-13T07:31:36.031Z,7.18
2023-05-13T07:34:06.163Z,8.38
2023-05-13T07:36:36.423Z,7.32
2023-05-13T07:42:36.938Z,7.50
2023-05-13T07:45:24.389Z,8.50
2023-05-13T07:54:23.949Z,9.52
2023-05-13T08:00:07.915Z,8.25
2023-05-13T08:02:59.681Z,7.15
2023-05-13T08:09:07.744Z,11.32
2023-05-13T08:11:47.280Z,10.40
2023-05-13T08:14:39.096Z,9.93
2023-05-13T08:17:35.099Z,10.43
2023-05-13T08:20:04.019Z,11.70
2023-05-13T08:22:31.230Z,13.20
2023-05-13T08:25:03.200Z,10.07
2023-05-13T08:27:33.303Z,11.95
2023-05-13T08:30:00.170Z,9.07
2023-05-13T08:32:27.549Z,11.48
2023-05-13T08:34:54.442Z,12.43
2023-05-13T08:37:21.230Z,11.65
2023-05-13T08:39:47.987Z,10.70
2023-05-13T08:42:19.294Z,10.88
2023-05-13T08:44:46.901Z,10.80
2023-05-13T08:47:26.341Z,12.93
2023-05-13T08:49:53.343Z,10.98
2023-05-13T08:52:22.595Z,11.50
2023-05-13T08:54:49.672Z,9.82
2023-05-13T08:57:16.913Z,10.82
2023-05-13T08:59:43.767Z,10.48
2023-05-13T09:02:10.884Z,10.60
2023-05-13T09:04:41.741Z,10.02
2023-05-13T09:07:09.291Z,11.95
2023-05-13T09:09:36.226Z,10.02
2023-05-13T09:12:03.720Z,10.52
2023-05-13T09:14:35.552Z,11.10
2023-05-13T09:17:02.609Z,12.55
2023-05-13T09:19:30.129Z,9.73
2023-05-13T09:22:09.645Z,12.35
2023-05-13T09:24:36.724Z,12.23
2023-05-13T09:27:12.443Z,12.32
2023-05-13T09:29:39.716Z,11.88
2023-05-13T09:32:12.652Z,11.82
2023-05-13T09:35:01.378Z,12.30
2023-05-13T09:37:50.499Z,10.98
2023-05-13T09:40:18.312Z,10.63
2023-05-13T09:42:46.737Z,11.05
2023-05-13T09:45:24.138Z,11.00
2023-05-13T09:47:53.634Z,10.13
2023-05-13T09:50:22.142Z,11.02
2023-05-13T09:52:49.852Z,10.13
2023-05-13T09:55:16.622Z,13.50
2023-05-13T09:57:43.427Z,12.48
2023-05-13T10:00:21.104Z,13.63
2023-05-13T10:02:56.322Z,11.55
2023-05-13T10:05:24.160Z,12.50
2023-05-13T10:07:50.913Z,12.50
2023-05-13T10:10:17.718Z,13.32
2023-05-13T10:12:44.627Z,13.00
2023-05-13T10:15:11.805Z,14.10
2023-05-13T10:17:42.433Z,14.90
2023-05-13T10:20:09.451Z,11.70
2023-05-13T10:22:36.926Z,14.95
2023-05-13T10:25:05.136Z,12.55
2023-05-13T10:27:33.367Z,13.20
2023-05-13T10:30:03.703Z,14.57
2023-05-13T10:32:31.597Z,16.27
2023-05-13T10:35:16.886Z,14.02
2023-05-13T10:38:01.766Z,14.35
2023-05-13T10:43:20.339Z,15.32
2023-05-13T10:45:56.111Z,16.08
2023-05-13T10:48:24.008Z,15.88
2023-05-13T10:51:03.183Z,16.02
2023-05-13T10:53:32.305Z,14.07
2023-05-13T10:56:00.236Z,16.73
2023-05-13T10:58:36.816Z,15.60
2023-05-13T11:01:14.761Z,13.63
2023-05-13T11:03:42.801Z,13.77
2023-05-13T11:06:18.152Z,13.98
2023-05-13T11:08:49.887Z,17.15
2023-05-13T11:11:28.609Z,15.93
2023-05-13T11:14:03.766Z,15.25
2023-05-13T11:16:30.784Z,15.40
2023-05-13T11:18:58.792Z,14.88
2023-05-13T11:21:34.976Z,14.90
2023-05-13T11:24:06.668Z,14.02
2023-05-13T11:26:48.792Z,15.00
2023-05-13T11:29:16.119Z,13.98
2023-05-13T11:31:44.248Z,14.98
2023-05-13T11:34:13.571Z,15.00
2023-05-13T11:36:45.892Z,12.73
2023-05-13T11:39:20.469Z,13.68
2023-05-13T11:41:50.254Z,16.25
2023-05-13T11:44:19.144Z,13.15
2023-05-13T11:46:56.291Z,13.05
2023-05-13T11:49:33.594Z,13.48
2023-05-13T11:52:17.761Z,12.80
2023-05-13T11:54:55.570Z,13.80
2023-05-13T11:57:24.572Z,13.05
2023-05-13T11:59:59.996Z,13.57
2023-05-13T12:02:31.346Z,16.02
2023-05-13T12:05:04.796Z,14.40
2023-05-13T12:07:32.701Z,16.67
2023-05-13T12:10:01.553Z,17.02
2023-05-13T12:12:30.444Z,16.20
2023-05-13T12:15:00.425Z,16.02
2023-05-13T12:17:27.735Z,15.38
2023-05-13T12:20:12.998Z,16.20
2023-05-13T12:22:43.083Z,19.10
2023-05-13T12:25:45.394Z,16.60
2023-05-13T12:28:13.880Z,15.75
2023-05-13T12:30:49.267Z,14.55
2023-05-13T12:33:27.264Z,14.52
2023-05-13T12:36:13.630Z,15.50
2023-05-13T12:38:40.581Z,14.25
2023-05-13T12:41:13.574Z,14.85
2023-05-13T12:43:41.362Z,16.17
2023-05-13T12:46:08.315Z,13.23
2023-05-13T12:48:35.153Z,13.75
2023-05-13T12:51:02.474Z,13.88
2023-05-13T12:53:29.602Z,15.70
2023-05-13T12:55:56.916Z,13.43
2023-05-13T12:58:23.632Z,14.32
2023-05-13T13:00:50.486Z,13.70
2023-05-13T13:03:17.291Z,12.65
2023-05-13T13:05:44.088Z,14.02
2023-05-13T13:08:10.864Z,13.35
2023-05-13T13:10:37.652Z,12.00
2023-05-13T13:13:04.390Z,13.10
2023-05-13T13:15:31.182Z,13.38
2023-05-13T13:17:57.927Z,12.70
2023-05-13T13:20:24.813Z,12.65
2023-05-13T13:22:55.746Z,11.15
2023-05-13T13:25:22.777Z,10.88
2023-05-13T13:27:49.772Z,13.15
2023-05-13T13:30:16.557Z,11.57
2023-05-13T13:32:43.339Z,13.50
2023-05-13T13:35:10.508Z,12.23
2023-05-13T13:37:38.074Z,13.90
2023-05-13T13:40:05.512Z,11.57
2023-05-13T13:42:43.286Z,11.85
2023-05-13T13:45:11.702Z,12.98
2023-05-13T13:47:38.606Z,13.75
2023-05-13T13:50:06.496Z,11.85
2023-05-13T13:52:33.305Z,13.45
2023-05-13T13:55:00.611Z,12.45
2023-05-13T13:57:27.449Z,13.27
2023-05-13T13:59:54.138Z,10.73
2023-05-13T14:02:20.937Z,10.95
2023-05-13T14:04:47.764Z,10.50
2023-05-13T14:07:14.556Z,10.20
2023-05-13T14:09:41.364Z,11.02
2023-05-13T14:12:08.523Z,9.93
2023-05-13T14:14:35.435Z,8.60
2023-05-13T14:17:02.298Z,9.30
2023-05-13T14:19:29.161Z,8.77
2023-05-13T14:21:55.890Z,9.73
2023-05-13T14:24:23.378Z,9.50
2023-05-13T14:26:50.334Z,10.48
2023-05-13T14:29:17.381Z,10.48
2023-05-13T14:31:44.335Z,8.98
2023-05-13T14:34:11.080Z,10.55
2023-05-13T14:36:37.893Z,9.25
2023-05-13T14:39:04.670Z,10.25
2023-05-13T14:41:35.214Z,10.18
2023-05-13T14:44:02.216Z,11.65
2023-05-13T14:46:29.080Z,11.73
2023-05-13T14:48:59.411Z,10.65
2023-05-13T14:51:26.158Z,10.13
2023-05-13T14:53:52.944Z,9.60
2023-05-13T14:56:19.657Z,9.68
2023-05-13T15:09:27.956Z,9.43
2023-05-13T15:11:54.643Z,9.55
2023-05-13T15:14:25.697Z,8.75
2023-05-13T15:16:53.139Z,8.70
2023-05-13T15:19:20.032Z,8.55
2023-05-13T15:21:46.771Z,8.85
2023-05-13T15:24:18.674Z,8.75
2023-05-13T15:26:45.398Z,9.02
2023-05-13T15:29:12.153Z,8.70
2023-05-13T15:31:40.035Z,8.88
2023-05-13T15:34:06.815Z,8.00
2023-05-13T15:36:35.346Z,9.52
2023-05-13T15:39:02.762Z,6.70
2023-05-13T15:41:29.607Z,7.45
2023-05-13T15:43:56.310Z,7.10
2023-05-13T15:46:24.022Z,7.20
2023-05-13T15:48:50.953Z,8.88
2023-05-13T15:51:21.225Z,7.10
2023-05-13T15:53:47.949Z,7.30
2023-05-13T15:56:19.548Z,7.45
2023-05-13T15:58:46.289Z,7.43
2023-05-13T16:01:13.318Z,6.65
2023-05-13T16:03:40.008Z,6.07
2023-05-13T16:06:07.221Z,7.10
2023-05-13T16:08:33.960Z,7.88
2023-05-13T16:11:00.698Z,6.90
2023-05-13T16:13:27.457Z,10.43
2023-05-13T16:15:54.408Z,8.93
2023-05-13T16:18:21.557Z,7.78
2023-05-13T16:20:48.392Z,7.25
2023-05-13T16:23:15.252Z,7.20
2023-05-13T16:25:43.335Z,6.63
2023-05-13T16:28:10.949Z,5.72
2023-05-13T16:30:37.820Z,6.30
2023-05-13T16:33:04.657Z,6.20
2023-05-13T16:35:31.411Z,7.35
2023-05-13T16:37:58.121Z,6.07
2023-05-13T16:40:25.044Z,5.63
2023-05-13T16:42:51.852Z,6.22
2023-05-13T16:45:18.858Z,6.20
2023-05-13T16:47:45.689Z,6.95
2023-05-13T16:50:12.421Z,6.60
2023-05-13T16:52:39.134Z,6.65
2023-05-13T16:55:06.465Z,6.00
2023-05-13T16:57:33.245Z,5.72
2023-05-13T16:59:59.997Z,5.75
2023-05-13T17:02:26.865Z,5.32
2023-05-13T17:04:53.667Z,5.75
2023-05-13T17:07:20.418Z,5.35
2023-05-13T17:09:47.185Z,6.35
2023-05-13T17:12:13.954Z,5.65
2023-05-13T17:14:40.769Z,5.38
2023-05-13T17:17:07.577Z,5.75
2023-05-13T17:19:34.372Z,5.72
2023-05-13T17:22:01.234Z,5.65
2023-05-13T17:24:31.677Z,6.50
2023-05-13T17:26:58.455Z,5.85
2023-05-13T17:29:25.894Z,5.97
2023-05-13T17:31:52.922Z,5.72
2023-05-13T17:34:20.308Z,6.15
2023-05-13T17:36:48.659Z,5.70
2023-05-13T17:39:16.776Z,6.03
2023-05-13T17:41:43.482Z,5.93
2023-05-13T17:44:10.259Z,6.63
2023-05-13T17:46:37.269Z,5.50
2023-05-13T17:49:04.556Z,6.43
2023-05-13T17:51:31.342Z,6.28
2023-05-13T17:53:58.047Z,6.53
2023-05-13T17:56:25.305Z,6.95
2023-05-13T17:58:52.031Z,7.43
2023-05-13T18:01:21.587Z,7.82
2023-05-13T18:03:48.445Z,8.15
2023-05-13T18:06:15.380Z,6.95
2023-05-13T18:08:42.147Z,7.05
2023-05-13T18:11:08.970Z,7.10
2023-05-13T18:13:35.976Z,6.80
2023-05-13T18:16:04.569Z,7.20
2023-05-13T18:18:31.711Z,6.70
2023-05-13T18:20:59.991Z,6.97
2023-05-13T18:23:26.858Z,6.95
2023-05-13T18:25:56.001Z,6.57
2023-05-13T18:28:25.207Z,6.75
2023-05-13T18:30:52.044Z,6.20
2023-05-13T18:33:20.460Z,6.50
2023-05-13T18:35:47.336Z,7.70
2023-05-13T18:38:14.079Z,6.10
2023-05-13T18:40:40.772Z,6.20
2023-05-13T18:43:07.476Z,7.90
2023-05-13T18:45:34.238Z,6.55
2023-05-13T18:48:01.077Z,5.88
2023-05-13T18:50:27.800Z,7.20
2023-05-13T18:52:54.531Z,7.30
2023-05-13T18:55:21.539Z,6.45
2023-05-13T18:57:48.276Z,6.90
2023-05-13T19:00:15.353Z,6.82
2023-05-13T19:02:42.278Z,6.30
2023-05-13T19:05:09.377Z,7.22
2023-05-13T19:07:36.157Z,7.03
2023-05-13T19:10:03.213Z,6.68
2023-05-13T19:12:29.922Z,6.30
2023-05-13T19:14:56.648Z,8.50
2023-05-13T19:17:26.426Z,6.88
2023-05-13T19:19:53.222Z,8.30
2023-05-13T19:22:20.021Z,8.95
2023-05-13T19:24:46.814Z,7.07
2023-05-13T19:27:13.724Z,7.68
2023-05-13T19:29:40.510Z,8.18
2023-05-13T19:32:07.331Z,7.70
2023-05-13T19:34:34.101Z,7.03
2023-05-13T19:37:01.091Z,8.43
2023-05-13T19:39:27.831Z,7.63
2023-05-13T19:41:54.508Z,7.28
2023-05-13T19:44:21.329Z,8.13
2023-05-13T19:46:48.241Z,8.18
2023-05-13T19:49:15.183Z,7.88
2023-05-13T19:51:42.061Z,7.90
2023-05-13T19:54:10.918Z,8.32
2023-05-13T19:56:38.037Z,9.25
2023-05-13T19:59:04.712Z,10.05
2023-05-13T20:01:32.031Z,11.98
2023-05-13T20:03:59.534Z,12.18
2023-05-13T20:06:26.609Z,10.73
2023-05-13T20:08:53.333Z,11.80
2023-05-13T20:11:20.690Z,11.00
2023-05-13T20:13:47.411Z,10.85
2023-05-13T20:16:14.193Z,9.70
2023-05-13T20:18:41.150Z,9.70
2023-05-13T20:21:08.683Z,11.05
2023-05-13T20:23:35.453Z,10.35
2023-05-13T20:26:02.244Z,9.75
2023-05-13T20:28:29.023Z,9.73
2023-05-13T20:30:56.157Z,11.07
2023-05-13T20:33:22.912Z,10.23
2023-05-13T20:35:49.673Z,9.40
2023-05-13T20:38:16.556Z,9.30
2023-05-13T20:40:43.282Z,11.80
2023-05-13T20:43:10.017Z,13.07
2023-05-13T20:45:39.550Z,12.02
2023-05-13T20:48:06.965Z,11.73
2023-05-13T20:50:33.721Z,13.73
2023-05-13T20:53:00.699Z,14.27
2023-05-13T20:55:27.629Z,13.90
2023-05-13T20:57:54.402Z,14.60
2023-05-13T21:00:21.394Z,14.75
2023-05-13T21:02:48.847Z,14.98
2023-05-13T21:05:15.801Z,15.93
2023-05-13T21:07:42.524Z,15.80
2023-05-13T21:10:09.544Z,14.85
2023-05-13T21:12:36.333Z,17.10
2023-05-13T21:15:03.217Z,14.90
2023-05-13T21:17:30.018Z,13.38
2023-05-13T21:19:56.822Z,13.35
2023-05-13T21:22:23.532Z,13.88
2023-05-13T21:24:50.738Z,13.88
2023-05-13T21:27:17.462Z,13.07
2023-05-13T21:29:47.406Z,15.98
2023-05-13T21:32:14.410Z,13.05
2023-05-13T21:34:41.154Z,13.93
2023-05-13T21:37:07.851Z,14.93
2023-05-13T21:39:34.597Z,12.70
2023-05-13T21:42:01.358Z,14.07
2023-05-13T21:44:29.124Z,13.27
2023-05-13T21:46:55.899Z,12.98
2023-05-13T21:49:22.684Z,14.05
2023-05-13T21:51:49.466Z,14.57
2023-05-13T21:54:16.272Z,15.88
2023-05-13T21:56:43.062Z,14.07
2023-05-13T21:59:09.783Z,12.95
2023-05-13T22:01:36.716Z,13.10
2023-05-13T22:04:03.600Z,13.95
2023-05-13T22:06:30.316Z,12.90
2023-05-13T22:08:57.031Z,13.77
2023-05-13T22:11:23.773Z,13.98
2023-05-13T22:13:50.496Z,13.90
2023-05-13T22:16:17.275Z,13.73
2023-05-13T22:18:44.535Z,13.80
2023-05-13T22:21:11.333Z,16.08
2023-05-13T22:23:38.084Z,14.40
2023-05-13T22:26:05.147Z,12.98
2023-05-13T22:28:31.907Z,13.15
2023-05-13T22:30:58.621Z,12.65
2023-05-13T22:33:25.637Z,15.13
2023-05-13T22:35:52.314Z,15.18
2023-05-13T22:38:19.049Z,15.20
2023-05-13T22:40:45.778Z,17.83
2023-05-13T22:43:12.480Z,15.05
2023-05-13T22:45:39.270Z,14.90
2023-05-13T22:48:06.388Z,12.60
2023-05-13T22:50:33.125Z,12.35
2023-05-13T22:52:59.845Z,12.30
2023-05-13T22:55:26.537Z,12.25
2023-05-13T22:57:53.284Z,12.60
2023-05-13T23:00:20.051Z,13.07
2023-05-13T23:02:46.782Z,13.40
2023-05-13T23:05:13.670Z,13.38
2023-05-13T23:07:40.324Z,12.63
2023-05-13T23:10:08.486Z,13.50
2023-05-13T23:12:35.202Z,13.90
2023-05-13T23:15:02.045Z,14.70
2023-05-13T23:17:29.102Z,11.07
2023-05-13T23:19:55.939Z,13.15
2023-05-13T23:22:22.610Z,11.27
2023-05-13T23:24:49.624Z,11.63
2023-05-13T23:27:16.323Z,11.10
2023-05-13T23:29:43.080Z,10.95
2023-05-13T23:32:09.778Z,11.48
2023-05-13T23:34:36.447Z,10.88
2023-05-13T23:37:03.238Z,10.40
2023-05-13T23:39:29.943Z,14.98
2023-05-13T23:41:56.657Z,10.68
2023-05-13T23:44:23.407Z,9.93
2023-05-13T23:46:50.173Z,12.13
2023-05-13T23:49:16.992Z,10.93
2023-05-13T23:51:43.839Z,10.10
2023-05-13T23:54:10.988Z,9.10
2023-05-13T23:56:37.734Z,9.95
2023-05-13T23:59:04.991Z,10.13
